createdAt,value
2018-06-18T05:23:43.134Z,7.60
2018-06-18T05:24:41.585Z,6.60
2018-06-18T05:26:46.068Z,4.70
2018-06-18T05:27:46.022Z,6.10
2018-06-18T05:29:44.984Z,6.00
2018-06-18T05:30:44.002Z,5.80
2018-06-18T05:32:42.496Z,4.30
2018-06-18T05:33:41.929Z,4.70
2018-06-18T05:35:41.389Z,6.00
2018-06-18T05:36:40.910Z,7.70
2018-06-18T05:38:40.529Z,5.00
2018-06-18T05:39:40.556Z,5.00
2018-06-18T05:41:38.496Z,4.80
2018-06-18T05:42:38.497Z,5.00
2018-06-18T05:44:36.587Z,7.70
2018-06-18T05:45:36.616Z,8.80
2018-06-18T05:47:35.604Z,7.30
2018-06-18T05:48:34.721Z,7.80
2018-06-18T05:50:33.789Z,6.30
2018-06-18T05:51:33.672Z,7.10
2018-06-18T05:53:34.197Z,6.60
2018-06-18T05:54:34.100Z,6.00
2018-06-18T05:56:33.107Z,4.00
2018-06-18T05:57:32.237Z,4.90
2018-06-18T05:59:32.724Z,6.70
2018-06-18T06:00:32.711Z,6.10
2018-06-18T06:02:28.718Z,7.00
2018-06-18T06:03:28.732Z,7.00
2018-06-18T06:05:28.647Z,8.10
2018-06-18T06:06:27.641Z,6.00
2018-06-18T06:08:29.222Z,9.20
2018-06-18T06:09:28.091Z,7.90
2018-06-18T06:11:26.064Z,4.70
2018-06-18T06:12:26.572Z,5.40
2018-06-18T06:14:23.584Z,5.90
2018-06-18T06:15:24.039Z,5.90
2018-06-18T06:17:24.481Z,8.10
2018-06-18T06:18:23.532Z,8.90
2018-06-18T06:20:22.944Z,5.80
2018-06-18T06:21:23.477Z,6.20
2018-06-18T06:23:22.129Z,6.80
2018-06-18T06:24:22.629Z,8.40
2018-06-18T06:26:22.621Z,6.50
2018-06-18T06:27:23.087Z,6.40
2018-06-18T06:29:23.546Z,6.40
2018-06-18T06:30:23.069Z,5.50
2018-06-18T06:32:20.973Z,7.40
2018-06-18T06:33:20.978Z,8.50
2018-06-18T06:35:20.967Z,7.70
2018-06-18T06:36:19.957Z,6.70
2018-06-18T06:38:20.098Z,6.50
2018-06-18T06:39:19.609Z,6.00
2018-06-18T06:41:18.045Z,4.80
2018-06-18T06:42:17.679Z,5.80
2018-06-18T06:44:17.189Z,8.60
2018-06-18T06:45:16.651Z,6.30
2018-06-18T06:47:16.623Z,8.70
2018-06-18T06:48:17.116Z,5.90
2018-06-18T06:50:17.113Z,4.40
2018-06-18T06:51:17.121Z,6.40
2018-06-18T06:53:13.665Z,5.70
2018-06-18T06:54:13.655Z,6.50
2018-06-18T06:56:14.574Z,6.70
2018-06-18T06:57:14.107Z,7.60
2018-06-18T06:59:15.009Z,6.60
2018-06-18T07:00:15.503Z,6.50
2018-06-18T07:02:17.017Z,6.40
2018-06-18T07:03:15.025Z,5.80
2018-06-18T07:05:13.490Z,4.20
2018-06-18T07:06:13.941Z,5.20
2018-06-18T07:08:08.960Z,4.40
2018-06-18T07:09:09.401Z,7.00
2018-06-18T07:11:08.897Z,3.80
2018-06-18T07:12:07.886Z,4.90
2018-06-18T07:14:09.282Z,5.10
2018-06-18T07:15:09.300Z,8.10
2018-06-18T07:17:11.259Z,5.90
2018-06-18T07:18:13.198Z,5.40
2018-06-18T07:20:10.293Z,5.20
2018-06-18T07:21:09.236Z,4.60
2018-06-18T07:23:08.269Z,6.30
2018-06-18T07:24:08.116Z,6.10
2018-06-18T07:26:08.262Z,4.90
2018-06-18T07:27:07.801Z,4.50
2018-06-18T07:29:06.627Z,6.10
2018-06-18T07:30:06.676Z,6.80
2018-06-18T07:32:30.529Z,7.00
2018-06-18T07:40:22.870Z,5.90
2018-06-18T07:41:22.905Z,5.00
2018-06-18T07:43:26.664Z,5.50
2018-06-18T07:44:23.434Z,6.40
2018-06-18T07:46:24.389Z,4.50
2018-06-18T07:47:24.795Z,5.60
2018-06-18T07:49:27.030Z,5.00
2018-06-18T07:50:26.817Z,6.20
2018-06-18T07:52:24.697Z,6.20
2018-06-18T07:53:24.760Z,3.60
2018-06-18T07:55:25.215Z,6.20
2018-06-18T07:56:26.142Z,4.80
2018-06-18T07:58:24.145Z,5.20
2018-06-18T07:59:23.387Z,5.00
2018-06-18T08:01:25.822Z,6.20
2018-06-18T08:02:23.798Z,4.80
2018-06-18T08:04:32.663Z,5.30
2018-06-18T08:05:31.090Z,6.00
2018-06-18T08:07:31.628Z,5.70
2018-06-18T08:08:31.933Z,5.30
2018-06-18T08:10:31.925Z,7.30
2018-06-18T08:11:36.797Z,4.90
2018-06-18T08:13:33.387Z,7.00
2018-06-18T08:14:33.769Z,5.90
2018-06-18T08:16:30.840Z,5.70
2018-06-18T08:19:28.351Z,5.90
2018-06-18T08:22:12.361Z,5.30
2018-06-18T08:23:10.878Z,6.10
2018-06-18T08:25:12.000Z,7.50
2018-06-18T08:26:11.585Z,5.90
2018-06-18T08:28:12.048Z,6.40
2018-06-18T08:29:13.085Z,5.20
2018-06-18T08:31:13.488Z,6.80
2018-06-18T08:32:13.222Z,5.00
2018-06-18T08:34:12.428Z,4.30
2018-06-18T08:35:11.670Z,7.00
2018-06-18T08:37:14.659Z,8.00
2018-06-18T08:38:12.304Z,6.90
2018-06-18T08:40:10.994Z,6.10
2018-06-18T08:42:57.075Z,5.30
2018-06-18T08:43:57.140Z,8.10
2018-06-18T08:45:57.564Z,4.00
2018-06-18T08:46:58.302Z,4.80
2018-06-18T08:48:59.050Z,5.30
2018-06-18T08:50:12.757Z,7.00
2018-06-18T08:52:00.111Z,6.10
2018-06-18T08:53:01.701Z,4.60
2018-06-18T08:55:10.018Z,4.40
2018-06-18T08:56:10.390Z,5.30
2018-06-18T08:58:12.477Z,3.70
2018-06-18T08:59:09.520Z,4.90
2018-06-18T09:01:15.651Z,4.80
2018-06-18T09:02:15.409Z,6.30
2018-06-18T09:04:15.864Z,7.40
2018-06-18T09:05:16.445Z,3.70
2018-06-18T09:07:14.830Z,5.80
2018-06-18T09:08:13.333Z,6.70
2018-06-18T09:10:12.259Z,5.50
2018-06-18T09:11:11.748Z,6.80
2018-06-18T09:13:11.798Z,5.40
2018-06-18T09:14:09.861Z,4.80
2018-06-18T09:16:10.364Z,5.60
2018-06-18T09:17:10.356Z,4.30
2018-06-18T09:19:08.322Z,6.30
2018-06-18T09:20:09.771Z,7.10
2018-06-18T09:22:08.764Z,7.10
2018-06-18T09:23:09.642Z,6.40
2018-06-18T09:25:09.782Z,5.00
2018-06-18T09:26:10.125Z,5.70
2018-06-18T09:28:09.224Z,3.30
2018-06-18T09:29:08.191Z,3.50
2018-06-18T09:31:05.800Z,5.90
2018-06-18T09:32:05.366Z,5.20
2018-06-18T09:34:02.230Z,5.70
2018-06-18T09:35:01.295Z,4.10
2018-06-18T09:36:58.248Z,4.50
2018-06-18T09:37:58.256Z,7.90
2018-06-18T09:39:54.716Z,5.90
2018-06-18T09:40:54.227Z,11.30
2018-06-18T09:42:50.166Z,12.80
2018-06-18T09:43:50.168Z,7.10
2018-06-18T09:45:46.153Z,7.30
2018-06-18T09:46:47.841Z,5.50
2018-06-18T09:48:46.753Z,4.50
2018-06-18T09:49:47.665Z,3.10
2018-06-18T09:51:48.069Z,4.90
2018-06-18T09:52:47.994Z,4.40
2018-06-18T09:54:48.182Z,5.20
2018-06-18T09:55:47.617Z,5.30
2018-06-18T09:57:48.512Z,5.20
2018-06-18T09:58:47.991Z,5.30
2018-06-18T10:00:52.534Z,4.10
2018-06-18T10:01:52.966Z,3.20
2018-06-18T10:03:55.046Z,4.30
2018-06-18T10:04:52.933Z,4.40
2018-06-18T10:06:56.916Z,4.10
2018-06-18T10:07:54.454Z,4.40
2018-06-18T10:09:56.402Z,6.90
2018-06-18T10:10:54.924Z,6.10
2018-06-18T10:12:55.359Z,2.90
2018-06-18T10:13:56.892Z,3.70
2018-06-18T10:15:56.309Z,5.60
2018-06-18T10:16:55.872Z,7.70
2018-06-18T10:18:56.392Z,3.90
2018-06-18T10:19:56.383Z,6.30
2018-06-18T10:21:57.273Z,3.50
2018-06-18T10:22:57.827Z,3.00
2018-06-18T10:24:57.327Z,4.80
2018-06-18T10:25:57.328Z,4.10
2018-06-18T10:27:58.205Z,3.20
2018-06-18T10:28:57.691Z,4.00
2018-06-18T10:30:58.816Z,2.90
2018-06-18T10:31:58.359Z,2.70
2018-06-18T10:33:58.730Z,4.60
2018-06-18T10:34:58.670Z,4.00
2018-06-18T10:37:00.158Z,4.80
2018-06-18T10:38:16.643Z,3.10
2018-06-18T10:40:06.665Z,3.80
2018-06-18T10:41:15.669Z,3.10
2018-06-18T10:43:26.857Z,3.70
2018-06-18T10:46:24.139Z,3.70
2018-06-18T10:47:22.715Z,3.10
2018-06-18T10:49:23.128Z,2.50
2018-06-18T10:50:24.077Z,4.20
2018-06-18T10:52:23.965Z,3.10
2018-06-18T10:53:26.421Z,3.40
2018-06-18T10:55:32.994Z,3.20
2018-06-18T10:57:57.052Z,2.70
2018-06-18T10:58:51.677Z,2.50
2018-06-18T11:00:53.560Z,2.30
2018-06-18T11:01:52.192Z,3.10
2018-06-18T11:03:58.392Z,2.60
2018-06-18T11:05:15.507Z,3.00
2018-06-18T11:07:04.185Z,2.80
2018-06-18T11:10:25.239Z,4.60
2018-06-18T11:10:47.459Z,4.90
2018-06-18T11:12:53.515Z,4.10
2018-06-18T11:15:40.829Z,3.50
2018-06-18T11:16:40.721Z,4.30
2018-06-18T11:18:41.232Z,3.60
2018-06-18T11:19:43.427Z,2.50
2018-06-18T11:21:42.493Z,3.50
2018-06-18T11:22:42.111Z,4.50
2018-06-18T11:24:44.180Z,2.70
2018-06-18T11:25:42.476Z,4.20
2018-06-18T11:27:42.981Z,3.00
2018-06-18T11:28:43.090Z,4.20
2018-06-18T11:30:53.395Z,3.40
2018-06-18T11:31:52.568Z,4.30
2018-06-18T11:34:24.367Z,3.70
2018-06-18T11:35:19.110Z,3.80
2018-06-18T11:37:19.438Z,2.70
2018-06-18T11:38:19.936Z,3.40
2018-06-18T11:40:32.478Z,3.30
2018-06-18T11:41:32.097Z,3.10
2018-06-18T11:43:39.117Z,3.40
2018-06-18T11:44:37.629Z,4.60
2018-06-18T11:46:39.681Z,4.30
2018-06-18T11:47:38.115Z,3.30
2018-06-18T11:49:39.103Z,3.50
2018-06-18T11:50:38.580Z,4.20
2018-06-18T11:52:40.604Z,3.00
2018-06-18T11:53:40.147Z,3.40
2018-06-18T11:55:40.643Z,3.10
2018-06-18T11:56:39.673Z,4.40
2018-06-18T11:58:42.005Z,3.90
2018-06-18T11:59:41.886Z,2.80
2018-06-18T12:01:42.464Z,2.40
2018-06-18T12:02:45.529Z,2.70
2018-06-18T12:04:44.349Z,2.70
2018-06-18T12:05:42.798Z,2.60
2018-06-18T12:07:44.270Z,3.70
2018-06-18T12:08:44.444Z,3.60
2018-06-18T12:10:50.771Z,3.30
2018-06-18T12:11:50.778Z,3.30
2018-06-18T12:13:50.877Z,2.70
2018-06-18T12:14:51.240Z,3.30
2018-06-18T12:16:51.581Z,2.90
2018-06-18T12:17:51.917Z,2.80
2018-06-18T12:19:52.685Z,3.70
2018-06-18T12:20:52.637Z,5.10
2018-06-18T12:22:52.266Z,3.50
2018-06-18T12:23:52.685Z,3.40
2018-06-18T12:25:53.626Z,3.60
2018-06-18T12:26:53.611Z,3.40
2018-06-18T12:28:53.692Z,2.70
2018-06-18T12:29:54.044Z,4.50
2018-06-18T12:31:54.584Z,2.30
2018-06-18T12:32:53.586Z,4.80
2018-06-18T12:34:54.520Z,2.60
2018-06-18T12:35:54.532Z,3.30
2018-06-18T12:37:55.547Z,3.40
2018-06-18T12:39:07.523Z,4.30
2018-06-18T12:40:55.166Z,3.00
2018-06-18T12:41:55.792Z,6.40
2018-06-18T12:43:53.529Z,3.20
2018-06-18T12:44:53.235Z,3.00
2018-06-18T12:48:41.182Z,2.70
2018-06-18T12:51:43.457Z,3.10
2018-06-18T12:52:42.771Z,4.00
2018-06-18T12:54:40.335Z,3.40
2018-06-18T12:57:16.580Z,3.00
2018-06-18T12:58:00.604Z,3.70
2018-06-18T13:00:01.005Z,3.60
2018-06-18T13:01:01.011Z,3.30
2018-06-18T13:03:01.959Z,2.50
2018-06-18T13:04:03.948Z,3.10
2018-06-18T13:06:02.919Z,2.70
2018-06-18T13:07:25.449Z,3.00
2018-06-18T13:09:03.468Z,2.50
2018-06-18T13:10:02.966Z,2.40
2018-06-18T13:13:26.954Z,2.80
2018-06-18T13:13:27.548Z,2.50
2018-06-18T13:15:29.298Z,5.40
2018-06-18T13:16:29.464Z,2.60
2018-06-18T13:23:42.941Z,2.50
2018-06-18T13:24:42.803Z,3.20
2018-06-18T13:26:47.469Z,2.90
2018-06-18T13:28:01.717Z,2.60
2018-06-18T13:29:48.722Z,3.80
2018-06-18T13:30:49.742Z,3.40
2018-06-18T13:34:01.278Z,5.20
2018-06-18T13:35:42.951Z,6.40
2018-06-18T13:37:06.084Z,3.00
2018-06-18T13:38:07.243Z,3.60
2018-06-18T13:40:33.165Z,3.90
2018-06-18T13:41:32.335Z,3.40
2018-06-18T13:43:32.992Z,3.40
2018-06-18T13:44:34.985Z,4.10
2018-06-18T13:46:33.970Z,5.60
2018-06-18T13:47:33.935Z,4.10
2018-06-18T13:51:49.441Z,3.00
2018-06-18T13:52:34.528Z,5.00
2018-06-18T13:54:34.034Z,3.20
2018-06-18T13:55:34.037Z,4.70
2018-06-18T13:57:36.504Z,2.90
2018-06-18T13:58:34.594Z,3.10
2018-06-18T14:00:32.539Z,2.70
2018-06-18T14:03:52.548Z,2.60
2018-06-18T14:04:53.953Z,2.60
2018-06-18T14:06:57.865Z,4.40
2018-06-18T14:09:17.685Z,4.50
2018-06-18T14:10:17.747Z,3.90
2018-06-18T14:12:21.409Z,3.00
2018-06-18T14:13:20.440Z,3.60
2018-06-18T14:15:34.423Z,5.80
2018-06-18T14:17:54.443Z,4.30
2018-06-18T14:20:08.237Z,3.90
2018-06-18T14:21:08.725Z,3.80
2018-06-18T14:23:11.308Z,3.90
2018-06-18T14:25:23.684Z,5.00
2018-06-18T14:26:22.785Z,2.80
2018-06-18T14:28:21.274Z,4.40
2018-06-18T14:29:21.781Z,3.60
2018-06-18T14:31:19.923Z,2.70
2018-06-18T14:32:35.573Z,3.70
2018-06-18T14:40:37.383Z,2.90
2018-06-18T14:51:35.761Z,2.50
2018-06-18T14:52:35.796Z,3.40
2018-06-18T14:55:39.745Z,2.70
2018-06-18T14:56:37.130Z,5.20
2018-06-18T15:00:39.487Z,3.70
2018-06-18T15:07:10.577Z,3.00
2018-06-18T15:07:44.892Z,4.30
2018-06-18T15:12:18.768Z,3.90
2018-06-18T15:16:15.011Z,3.10
2018-06-18T15:31:43.680Z,3.90
2018-06-18T15:38:11.214Z,2.70
2018-06-18T15:41:21.779Z,2.80
2018-06-18T15:43:40.929Z,3.50
2018-06-18T15:46:22.812Z,2.50
2018-06-18T15:47:22.281Z,2.30
2018-06-18T15:51:12.951Z,2.80
2018-06-18T15:54:12.117Z,2.40
2018-06-18T15:55:38.130Z,3.30
2018-06-18T16:10:47.626Z,2.30
2018-06-18T16:11:24.394Z,2.80
2018-06-18T16:13:50.271Z,2.70
2018-06-18T16:15:58.221Z,2.30
2018-06-18T16:16:57.701Z,2.30
2018-06-18T16:21:26.930Z,2.60
2018-06-18T16:22:28.638Z,2.40
2018-06-18T16:24:29.568Z,2.60
2018-06-18T16:25:29.619Z,2.50
2018-06-18T16:30:31.502Z,3.80
2018-06-18T16:32:54.370Z,2.50
2018-06-18T16:33:51.614Z,2.20
2018-06-18T16:36:17.672Z,2.40
2018-06-18T16:39:11.683Z,2.50
2018-06-18T16:59:05.719Z,3.00
2018-06-18T16:59:58.247Z,1.80
2018-06-18T17:06:40.244Z,2.80
2018-06-18T17:07:39.123Z,2.30
2018-06-18T17:09:35.750Z,2.60
2018-06-18T17:10:35.081Z,2.00
2018-06-18T17:13:00.915Z,2.20
2018-06-18T17:17:26.501Z,2.20
2018-06-18T17:18:24.850Z,2.10
2018-06-18T17:20:30.943Z,2.80
2018-06-18T17:24:13.517Z,2.30
2018-06-18T17:26:51.351Z,3.50
2018-06-18T17:27:22.119Z,2.40
2018-06-18T17:30:24.663Z,2.70
2018-06-18T17:30:32.229Z,2.30
2018-06-18T17:33:33.718Z,2.30
2018-06-18T17:34:34.256Z,4.10
2018-06-18T17:36:34.113Z,2.80
2018-06-18T17:37:35.008Z,2.40
2018-06-18T17:39:34.555Z,2.30
2018-06-18T17:40:34.504Z,2.10
2018-06-18T17:42:35.483Z,2.60
2018-06-18T17:43:36.479Z,2.30
2018-06-18T17:45:36.996Z,2.60
2018-06-18T17:46:36.438Z,2.60
2018-06-18T17:48:35.927Z,3.10
2018-06-18T17:49:37.000Z,2.00
2018-06-18T17:51:37.414Z,2.30
2018-06-18T17:52:36.451Z,3.00
2018-06-18T17:54:35.388Z,2.50
2018-06-18T17:55:35.351Z,2.20
2018-06-18T17:57:36.863Z,3.20
2018-06-18T17:58:37.832Z,2.20
2018-06-18T18:00:35.340Z,2.60
2018-06-18T18:01:34.976Z,2.30
2018-06-18T18:03:35.477Z,2.40
2018-06-18T18:04:36.515Z,2.20
2018-06-18T18:06:37.481Z,2.50
2018-06-18T18:07:35.934Z,2.10
2018-06-18T18:09:32.971Z,2.80
2018-06-18T18:10:32.932Z,2.40
2018-06-18T18:12:33.450Z,2.60
2018-06-18T18:13:33.946Z,3.80
2018-06-18T18:15:34.847Z,2.60
2018-06-18T18:16:34.825Z,2.40
2018-06-18T18:18:32.787Z,2.70
2018-06-18T18:19:32.111Z,2.50
2018-06-18T18:21:28.658Z,2.60
2018-06-18T18:22:27.646Z,3.00
2018-06-18T18:24:28.600Z,2.50
2018-06-18T18:25:28.092Z,3.90
2018-06-18T18:27:25.101Z,2.30
2018-06-18T18:28:25.106Z,2.40
2018-06-18T18:30:20.095Z,2.60
2018-06-18T18:31:20.099Z,3.40
2018-06-18T18:33:20.559Z,2.70
2018-06-18T18:34:20.590Z,2.90
2018-06-18T18:36:22.071Z,2.60
2018-06-18T18:37:21.533Z,3.70
2018-06-18T18:39:19.089Z,2.90
2018-06-18T18:40:19.077Z,4.00
2018-06-18T18:42:20.950Z,2.70
2018-06-18T18:43:19.513Z,2.40
2018-06-18T18:45:18.063Z,2.80
2018-06-18T18:46:18.015Z,3.80
2018-06-18T18:48:18.471Z,2.90
2018-06-18T18:49:18.021Z,3.30
2018-06-18T18:51:16.077Z,3.70
2018-06-18T18:52:16.519Z,2.80
2018-06-18T18:54:14.914Z,6.40
2018-06-18T18:55:14.981Z,2.90
2018-06-18T18:57:11.913Z,3.10
2018-06-18T18:58:12.066Z,2.80
2018-06-18T19:00:10.859Z,4.60
2018-06-18T19:01:10.796Z,3.90
2018-06-18T19:03:09.076Z,2.90
2018-06-18T19:04:08.338Z,4.40
2018-06-18T19:06:10.455Z,3.50
2018-06-18T19:07:09.709Z,4.50
2018-06-18T19:09:07.671Z,5.60
2018-06-18T19:10:06.857Z,4.20
2018-06-18T19:12:08.495Z,4.20
2018-06-18T19:13:07.460Z,5.50
2018-06-18T19:15:26.949Z,3.40
2018-06-18T19:16:35.219Z,3.60
2018-06-18T19:18:23.559Z,3.50
2018-06-18T19:19:22.570Z,3.30
2018-06-18T19:21:25.932Z,3.40
2018-06-18T19:22:23.855Z,4.10
2018-06-18T19:25:12.087Z,4.00
2018-06-18T19:25:55.919Z,4.10
2018-06-18T19:28:27.268Z,5.40
2018-06-18T19:29:13.704Z,3.10
2018-06-18T19:31:20.532Z,3.50
2018-06-18T19:31:58.708Z,3.70
2018-06-18T19:34:09.597Z,3.70
2018-06-18T19:35:08.983Z,3.60
2018-06-18T19:41:08.567Z,3.90
2018-06-18T19:42:34.776Z,3.80
2018-06-18T19:43:34.805Z,4.80
2018-06-18T19:53:27.078Z,3.70
2018-06-18T19:54:40.247Z,4.40
2018-06-18T19:56:22.794Z,4.10
2018-06-18T19:57:22.329Z,4.10
2018-06-18T19:59:24.849Z,4.30
2018-06-18T20:00:23.291Z,4.50
2018-06-18T20:02:29.797Z,3.80
2018-06-18T20:03:28.300Z,4.70
2018-06-18T20:05:27.739Z,4.40
2018-06-18T20:06:26.769Z,4.00
2018-06-18T20:08:26.752Z,4.30
2018-06-18T20:09:27.342Z,4.10
2018-06-18T20:11:28.357Z,4.20
2018-06-18T20:14:28.152Z,5.60
2018-06-18T20:15:32.140Z,4.30
2018-06-18T20:17:26.617Z,4.30
2018-06-18T20:18:25.783Z,4.30
2018-06-18T20:20:25.211Z,5.00
2018-06-18T20:21:23.873Z,4.80
2018-06-18T20:23:24.372Z,3.80
2018-06-18T20:24:24.814Z,4.00
2018-06-18T20:26:24.773Z,4.40
2018-06-18T20:27:24.920Z,4.80
2018-06-18T20:29:25.299Z,5.10
2018-06-18T20:30:25.736Z,5.60
2018-06-18T20:32:30.855Z,4.70
2018-06-18T20:33:25.745Z,4.40
2018-06-18T20:35:26.674Z,5.00
2018-06-18T20:36:26.153Z,4.70
2018-06-18T20:38:43.683Z,4.90
2018-06-18T20:39:28.628Z,4.90
2018-06-18T20:41:28.169Z,4.70
2018-06-18T20:42:28.633Z,6.70
2018-06-18T20:44:28.685Z,4.40
2018-06-18T20:45:28.676Z,4.60
2018-06-18T20:47:28.599Z,4.00
2018-06-18T20:48:27.510Z,4.20
2018-06-18T20:52:20.807Z,4.50
2018-06-18T20:53:21.013Z,3.90
2018-06-18T20:55:20.320Z,4.20
2018-06-18T20:56:20.265Z,4.10
2018-06-18T20:58:22.322Z,4.10
2018-06-18T20:59:22.207Z,4.40
2018-06-18T21:01:23.157Z,5.60
2018-06-18T21:02:22.581Z,4.50
2018-06-18T21:04:22.985Z,4.80
2018-06-18T21:05:22.990Z,4.90
2018-06-18T21:07:23.465Z,4.70
2018-06-18T21:08:23.484Z,5.80
2018-06-18T21:12:48.610Z,5.10
2018-06-18T21:13:48.529Z,4.20
2018-06-18T21:15:50.569Z,4.40
2018-06-18T21:18:27.516Z,4.80
2018-06-18T21:19:26.574Z,4.30
2018-06-18T21:21:26.691Z,4.00
2018-06-18T21:22:26.147Z,4.60
2018-06-18T21:24:26.526Z,6.50
2018-06-18T21:25:26.539Z,4.40
2018-06-18T21:27:25.591Z,4.20
2018-06-18T21:28:25.548Z,4.20
2018-06-18T21:30:25.170Z,4.50
2018-06-18T21:31:25.685Z,4.20
2018-06-18T21:33:26.141Z,4.80
2018-06-18T21:34:27.004Z,3.90
2018-06-18T21:36:43.579Z,4.30
2018-06-18T21:37:47.723Z,4.20
2018-06-18T21:40:05.596Z,4.60
2018-06-18T21:54:37.895Z,4.90
2018-06-18T21:55:51.212Z,3.70
2018-06-18T21:57:36.381Z,4.10
2018-06-18T21:58:39.315Z,4.60
2018-06-18T22:00:42.447Z,4.60
2018-06-18T22:01:41.862Z,4.00
2018-06-18T22:03:45.354Z,4.40
2018-06-18T22:04:46.842Z,4.20
